Time;durP1;ratioP1;P1;durP2;ratioP2;P2;SDS_P1;SDS_P2;PMS_P1;PMS_P2;Temp;Humidity;BMP_temperature;BMP_pressure;BME280_temperature;BME280_humidity;BME280_pressure;Samples;Min_cycle;Max_cycle;Signal;HPM_P1;HPM_P2
2023/11/18 00:01:15;;;;;;;29.80;15.48;;;6.30;99.90;;;;;;4173760;28;20052;-77
2023/11/18 00:03:15;;;;;;;29.20;14.77;;;6.30;99.90;;;;;;4165295;28;20029;-77
2023/11/18 00:05:17;;;;;;;28.05;15.70;;;6.30;99.90;;;;;;4170748;28;20544;-76
2023/11/18 00:07:18;;;;;;;29.70;15.83;;;6.30;99.90;;;;;;4172597;28;20040;-77
2023/11/18 00:09:19;;;;;;;32.65;16.10;;;6.30;99.90;;;;;;4172503;28;20037;-77
2023/11/18 00:11:20;;;;;;;27.80;15.40;;;6.30;99.90;;;;;;4168361;28;20041;-75
2023/11/18 00:13:21;;;;;;;28.83;15.02;;;6.30;99.90;;;;;;4168616;28;20574;-76
2023/11/18 00:15:22;;;;;;;34.20;16.33;;;6.30;99.90;;;;;;4168476;28;20037;-76
2023/11/18 00:17:22;;;;;;;28.20;15.52;;;6.30;99.90;;;;;;4164505;28;20087;-77
2023/11/18 00:19:23;;;;;;;34.45;17.42;;;6.30;99.90;;;;;;4173279;28;20063;-76
2023/11/18 00:21:24;;;;;;;30.38;15.98;;;6.30;99.90;;;;;;4178009;28;20090;-75
2023/11/18 00:23:26;;;;;;;28.77;16.40;;;6.40;99.90;;;;;;4156916;28;20400;-73
2023/11/18 00:25:27;;;;;;;28.67;15.82;;;6.40;99.90;;;;;;4161743;28;20045;-75
2023/11/18 00:27:27;;;;;;;29.45;16.85;;;6.40;99.90;;;;;;4170849;28;20476;-76
2023/11/18 00:29:28;;;;;;;31.95;16.23;;;6.40;99.90;;;;;;4169659;28;20037;-65
2023/11/18 00:31:29;;;;;;;26.95;15.90;;;6.40;99.90;;;;;;4164180;28;20061;-64
2023/11/18 00:33:30;;;;;;;29.58;16.38;;;6.30;99.90;;;;;;4167397;28;20488;-65
2023/11/18 00:35:33;;;;;;;31.65;15.93;;;6.40;99.90;;;;;;4174621;28;20107;-65
2023/11/18 00:37:34;;;;;;;28.52;16.25;;;6.40;99.90;;;;;;4175624;28;20033;-64
2023/11/18 00:39:34;;;;;;;29.17;16.27;;;6.40;99.90;;;;;;4173853;28;20037;-65
2023/11/18 00:41:35;;;;;;;28.33;15.60;;;6.40;99.90;;;;;;4173634;28;20049;-65
2023/11/18 00:43:36;;;;;;;38.35;15.43;;;6.40;99.90;;;;;;4174675;28;20082;-65
2023/11/18 00:45:36;;;;;;;29.90;16.63;;;6.40;99.90;;;;;;4173785;28;20538;-64
2023/11/18 00:47:37;;;;;;;33.30;18.30;;;6.30;99.90;;;;;;4175126;28;20111;-64
2023/11/18 00:49:37;;;;;;;29.60;16.67;;;6.30;99.90;;;;;;4171500;28;20072;-64
2023/11/18 00:51:38;;;;;;;29.17;16.05;;;6.30;99.90;;;;;;4171930;28;20038;-64
2023/11/18 00:53:39;;;;;;;27.48;15.38;;;6.40;99.90;;;;;;4174704;28;20053;-64
2023/11/18 00:55:41;;;;;;;34.03;17.98;;;6.40;99.90;;;;;;4172743;28;20034;-64
2023/11/18 00:57:41;;;;;;;32.17;17.05;;;6.40;99.90;;;;;;4170217;28;20056;-64
2023/11/18 00:59:43;;;;;;;30.83;16.35;;;6.30;99.90;;;;;;4173207;28;20040;-64
2023/11/18 01:01:44;;;;;;;28.53;16.10;;;6.30;99.90;;;;;;4173718;28;20120;-64
2023/11/18 01:03:45;;;;;;;33.42;16.55;;;6.30;99.90;;;;;;4172872;28;20492;-64
2023/11/18 01:05:46;;;;;;;30.73;16.53;;;6.40;99.90;;;;;;4134813;28;20108;-64
2023/11/18 01:07:47;;;;;;;29.98;15.70;;;6.40;99.90;;;;;;4150450;28;20279;-64
2023/11/18 01:09:48;;;;;;;28.10;16.13;;;6.40;99.90;;;;;;4151213;28;20037;-64
2023/11/18 01:11:49;;;;;;;33.17;16.48;;;6.40;99.90;;;;;;4157121;28;20039;-64
2023/11/18 01:13:50;;;;;;;32.38;16.40;;;6.40;99.90;;;;;;4181691;28;20092;-64
2023/11/18 01:15:51;;;;;;;34.63;17.55;;;6.40;99.90;;;;;;4160216;28;20116;-64
2023/11/18 01:17:53;;;;;;;31.50;16.80;;;6.50;99.90;;;;;;4172989;28;20068;-64
2023/11/18 01:19:53;;;;;;;31.55;17.77;;;6.50;99.90;;;;;;4165961;28;20025;-64
2023/11/18 01:21:55;;;;;;;33.53;17.08;;;6.50;99.90;;;;;;4163548;28;20059;-64
2023/11/18 01:23:56;;;;;;;33.75;18.27;;;6.40;99.90;;;;;;4166798;28;20488;-64
2023/11/18 01:25:57;;;;;;;30.60;16.85;;;6.50;99.90;;;;;;4170485;28;20120;-64
2023/11/18 01:27:58;;;;;;;37.88;18.92;;;6.40;99.90;;;;;;4174087;28;20472;-64
2023/11/18 01:29:58;;;;;;;35.05;17.95;;;6.40;99.90;;;;;;4171496;28;20176;-64
2023/11/18 01:31:59;;;;;;;35.40;18.45;;;6.40;99.90;;;;;;4163636;28;20465;-64
2023/11/18 01:33:59;;;;;;;35.83;18.85;;;6.40;99.90;;;;;;4178329;28;20060;-64
2023/11/18 01:36:00;;;;;;;32.97;18.15;;;6.40;99.90;;;;;;4182225;28;20112;-64
2023/11/18 01:38:01;;;;;;;35.63;18.17;;;6.40;99.90;;;;;;4175553;28;20120;-64
2023/11/18 01:40:05;;;;;;;33.90;18.40;;;6.30;99.90;;;;;;4166311;28;20057;-68
2023/11/18 01:42:05;;;;;;;35.47;18.67;;;6.40;99.90;;;;;;4162399;28;20430;-68
2023/11/18 01:44:07;;;;;;;36.65;18.70;;;6.40;99.90;;;;;;4178528;28;20112;-68
2023/11/18 01:46:10;;;;;;;37.75;18.42;;;6.40;99.90;;;;;;4176988;28;20033;-68
2023/11/18 01:48:10;;;;;;;;;;;6.30;99.90;;;;;;4140749;28;20103;-68
2023/11/18 01:50:14;;;;;;;37.60;19.42;;;6.30;99.90;;;;;;4162740;28;19964;-66
2023/11/18 01:52:15;;;;;;;37.88;20.02;;;6.30;99.90;;;;;;4175934;28;20037;-64
2023/11/18 01:54:18;;;;;;;35.72;18.27;;;6.20;99.90;;;;;;4182024;28;20053;-64
2023/11/18 01:56:21;;;;;;;33.95;18.65;;;6.20;99.90;;;;;;4127046;28;20037;-64
2023/11/18 01:58:23;;;;;;;35.63;17.80;;;6.20;99.90;;;;;;4172572;28;20033;-71
2023/11/18 02:00:24;;;;;;;38.80;19.08;;;6.20;99.90;;;;;;4173185;28;20083;-64
2023/11/18 02:02:26;;;;;;;35.72;17.83;;;6.20;99.90;;;;;;4165400;28;20029;-64
2023/11/18 02:04:27;;;;;;;33.35;18.20;;;6.10;99.90;;;;;;4161783;28;20648;-64
2023/11/18 02:06:28;;;;;;;35.88;19.08;;;6.10;99.90;;;;;;4175650;28;20037;-64
2023/11/18 02:08:29;;;;;;;34.95;18.85;;;6.10;99.90;;;;;;4175626;28;20040;-64
2023/11/18 02:10:31;;;;;;;37.58;19.58;;;6.10;99.90;;;;;;4173329;28;20037;-64
2023/11/18 02:12:44;;;;;;;;;;;6.10;99.90;;;;;;4178661;28;20560;-64
2023/11/18 02:14:45;;;;;;;36.30;17.92;;;6.10;99.90;;;;;;4177371;28;20012;-64
2023/11/18 02:16:48;;;;;;;32.88;17.50;;;6.10;99.90;;;;;;4174213;28;20064;-64
2023/11/18 02:18:51;;;;;;;36.13;18.67;;;6.10;99.90;;;;;;4176435;28;20082;-64
2023/11/18 02:20:57;;;;;;;35.85;18.15;;;6.10;99.90;;;;;;4178782;28;20070;-64
2023/11/18 02:22:59;;;;;;;35.78;18.45;;;6.10;99.90;;;;;;4178153;28;20037;-64
2023/11/18 02:25:06;;;;;;;35.87;19.40;;;6.10;99.90;;;;;;4177119;28;20033;-64
2023/11/18 02:27:07;;;;;;;37.17;19.50;;;6.00;99.90;;;;;;4175447;28;20069;-65
2023/11/18 02:29:09;;;;;;;33.60;18.17;;;6.10;99.90;;;;;;4176845;28;20509;-64
2023/11/18 02:31:16;;;;;;;38.73;19.60;;;6.10;99.90;;;;;;4150163;28;23185;-64
2023/11/18 02:33:52;;;;;;;37.20;18.30;;;6.10;99.90;;;;;;4163473;28;20029;-64
2023/11/18 02:35:57;;;;;;;36.38;18.60;;;6.10;99.90;;;;;;4161772;28;20402;-65
2023/11/18 02:38:00;;;;;;;37.03;18.27;;;6.10;99.90;;;;;;4165046;28;20151;-64
2023/11/18 02:40:11;;;;;;;38.88;19.52;;;6.10;99.90;;;;;;4163483;28;20037;-64
2023/11/18 02:42:13;;;;;;;37.63;18.13;;;6.10;99.90;;;;;;4163214;28;20045;-64
2023/11/18 02:44:17;;;;;;;36.95;19.55;;;6.10;99.90;;;;;;4167039;28;20044;-64
2023/11/18 02:46:20;;;;;;;37.50;19.27;;;6.10;99.90;;;;;;4163560;28;20534;-64
2023/11/18 02:48:21;;;;;;;33.38;17.83;;;6.10;99.90;;;;;;4167363;28;20528;-65
2023/11/18 02:50:22;;;;;;;36.38;17.73;;;6.10;99.90;;;;;;4162692;28;20052;-64
2023/11/18 02:52:23;;;;;;;36.30;17.77;;;6.10;99.90;;;;;;4152948;28;20033;-64
2023/11/18 02:54:24;;;;;;;35.85;19.08;;;6.20;99.90;;;;;;4152223;28;20045;-66
2023/11/18 02:56:24;;;;;;;39.42;19.23;;;6.20;99.90;;;;;;4157541;28;20033;-64
2023/11/18 02:58:25;;;;;;;33.72;18.25;;;6.20;99.90;;;;;;4174740;28;20046;-64
2023/11/18 03:00:25;;;;;;;35.40;17.48;;;6.20;99.90;;;;;;4174233;28;20037;-64
2023/11/18 03:02:30;;;;;;;31.98;16.85;;;6.20;99.90;;;;;;4170243;28;20342;-64
2023/11/18 03:04:31;;;;;;;32.92;17.83;;;6.20;99.90;;;;;;4172185;28;20150;-65
2023/11/18 03:06:32;;;;;;;33.92;17.58;;;6.20;99.90;;;;;;4175718;28;20063;-64
2023/11/18 03:08:34;;;;;;;36.17;17.92;;;6.20;99.90;;;;;;4173666;28;20110;-64
2023/11/18 03:10:34;;;;;;;35.92;18.40;;;6.30;99.90;;;;;;4172220;28;20041;-72
2023/11/18 03:12:35;;;;;;;34.45;18.73;;;6.30;99.90;;;;;;4152114;28;20037;-71
2023/11/18 03:14:37;;;;;;;36.20;18.20;;;6.30;99.90;;;;;;4170425;28;20062;-71
2023/11/18 03:16:38;;;;;;;34.80;19.10;;;6.30;99.90;;;;;;4156340;28;20042;-72
2023/11/18 03:18:40;;;;;;;35.20;18.27;;;6.30;99.90;;;;;;4174833;28;20029;-72
2023/11/18 03:20:41;;;;;;;33.78;17.05;;;6.30;99.90;;;;;;4171829;28;20049;-71
2023/11/18 03:22:51;;;;;;;32.75;17.48;;;6.30;99.90;;;;;;4176572;28;20040;-72
2023/11/18 03:24:51;;;;;;;34.58;18.92;;;6.20;99.90;;;;;;4176538;28;20392;-71
2023/11/18 03:26:52;;;;;;;35.10;17.10;;;6.30;99.90;;;;;;4171043;28;20053;-71
2023/11/18 03:28:53;;;;;;;31.67;17.58;;;6.30;99.90;;;;;;4175602;28;20036;-72
2023/11/18 03:30:53;;;;;;;34.83;17.88;;;6.30;99.90;;;;;;4174689;28;20200;-71
2023/11/18 03:32:54;;;;;;;37.05;18.42;;;6.30;99.90;;;;;;4185164;28;20056;-71
2023/11/18 03:34:55;;;;;;;34.10;18.45;;;6.30;99.90;;;;;;4176052;28;20033;-72
2023/11/18 03:36:57;;;;;;;32.88;17.67;;;6.30;99.90;;;;;;4148316;28;20052;-71
2023/11/18 03:38:57;;;;;;;34.47;18.13;;;6.30;99.90;;;;;;4161704;28;20076;-72
2023/11/18 03:40:58;;;;;;;37.45;18.17;;;6.20;99.90;;;;;;4159647;28;20045;-72
2023/11/18 03:42:58;;;;;;;35.53;18.15;;;6.20;99.90;;;;;;4171827;28;20539;-72
2023/11/18 03:44:59;;;;;;;35.22;17.08;;;6.30;99.90;;;;;;4158848;28;20034;-72
2023/11/18 03:46:59;;;;;;;27.73;16.27;;;6.30;99.90;;;;;;4157070;28;20084;-71
2023/11/18 03:49:01;;;;;;;36.08;18.77;;;6.30;99.90;;;;;;4129142;28;20040;-72
2023/11/18 03:51:03;;;;;;;33.70;19.27;;;6.30;99.90;;;;;;4152872;28;20159;-72
2023/11/18 03:53:04;;;;;;;34.53;18.33;;;6.30;99.90;;;;;;4160597;28;20033;-71
2023/11/18 03:55:05;;;;;;;33.45;17.90;;;6.30;99.90;;;;;;4132179;28;20072;-71
2023/11/18 03:57:05;;;;;;;34.67;18.58;;;6.30;99.90;;;;;;4171455;28;20537;-72
2023/11/18 03:59:06;;;;;;;34.95;19.23;;;6.30;99.90;;;;;;4168435;28;20431;-71
2023/11/18 04:01:06;;;;;;;35.28;19.08;;;6.30;99.90;;;;;;4166736;28;20033;-71
2023/11/18 04:03:07;;;;;;;30.95;17.42;;;6.30;99.90;;;;;;4167884;28;20470;-71
2023/11/18 04:05:08;;;;;;;34.47;18.35;;;6.30;99.90;;;;;;4168423;28;20060;-71
2023/11/18 04:07:09;;;;;;;33.78;18.55;;;6.30;99.90;;;;;;4172836;28;20056;-71
2023/11/18 04:09:10;;;;;;;31.92;17.27;;;6.30;99.90;;;;;;4171848;28;20444;-70
2023/11/18 04:11:11;;;;;;;32.88;17.33;;;6.40;99.90;;;;;;4146611;28;20029;-71
2023/11/18 04:13:12;;;;;;;35.70;18.75;;;6.30;99.90;;;;;;4175739;28;20496;-71
2023/11/18 04:15:14;;;;;;;37.75;18.90;;;6.30;99.90;;;;;;4173324;28;20025;-71
2023/11/18 04:17:14;;;;;;;41.95;20.48;;;6.30;99.90;;;;;;4174435;28;20052;-72
2023/11/18 04:19:15;;;;;;;40.72;20.45;;;6.30;99.90;;;;;;4164543;28;20041;-72
2023/11/18 04:21:16;;;;;;;40.35;19.90;;;6.30;99.90;;;;;;4172607;28;20045;-72
2023/11/18 04:23:17;;;;;;;39.22;20.08;;;6.20;99.90;;;;;;4156744;28;20049;-72
2023/11/18 04:25:17;;;;;;;36.13;18.55;;;6.20;99.90;;;;;;4146649;28;20673;-72
2023/11/18 04:27:18;;;;;;;36.38;18.88;;;6.20;99.90;;;;;;4159050;28;20037;-72
2023/11/18 04:29:19;;;;;;;38.55;19.25;;;6.20;99.90;;;;;;4164607;28;20116;-73
2023/11/18 04:31:21;;;;;;;40.03;19.90;;;6.30;99.90;;;;;;4166230;28;20045;-73
2023/11/18 04:33:22;;;;;;;41.45;20.98;;;6.30;99.90;;;;;;4172270;28;20045;-73
2023/11/18 04:35:24;;;;;;;37.28;19.60;;;6.20;99.90;;;;;;4171062;28;20087;-73
2023/11/18 04:37:25;;;;;;;45.20;23.35;;;6.20;99.90;;;;;;4165695;28;20033;-73
2023/11/18 04:39:25;;;;;;;48.15;23.77;;;6.20;99.90;;;;;;4179341;28;20079;-72
2023/11/18 04:41:26;;;;;;;46.72;24.42;;;6.10;99.90;;;;;;4141433;28;20428;-72
2023/11/18 04:43:26;;;;;;;44.28;22.85;;;6.10;99.90;;;;;;4169845;28;20038;-73
2023/11/18 04:45:27;;;;;;;41.30;20.63;;;6.10;99.90;;;;;;4173299;28;20025;-73
2023/11/18 04:47:28;;;;;;;39.47;21.13;;;6.10;99.90;;;;;;4159457;28;20478;-73
2023/11/18 04:49:28;;;;;;;50.30;22.77;;;6.10;99.90;;;;;;4177122;28;20049;-72
2023/11/18 04:51:29;;;;;;;44.47;22.02;;;6.20;99.90;;;;;;4169703;28;20079;-72
2023/11/18 04:53:30;;;;;;;42.70;21.40;;;6.10;99.90;;;;;;4175459;28;20052;-73
2023/11/18 04:55:32;;;;;;;39.67;20.45;;;6.20;99.90;;;;;;4175101;28;20035;-73
2023/11/18 04:57:33;;;;;;;40.22;20.75;;;6.20;99.90;;;;;;4177065;28;20072;-73
2023/11/18 04:59:33;;;;;;;47.95;22.15;;;6.20;99.90;;;;;;4179183;28;20029;-73
2023/11/18 05:01:34;;;;;;;43.40;21.55;;;6.20;99.90;;;;;;4183707;28;20504;-73
2023/11/18 05:03:36;;;;;;;41.58;21.23;;;6.20;99.90;;;;;;4163141;28;20037;-72
2023/11/18 05:05:39;;;;;;;50.60;24.03;;;6.20;99.90;;;;;;4174516;28;20087;-72
2023/11/18 05:07:41;;;;;;;44.92;22.73;;;6.20;99.90;;;;;;4167385;28;20538;-72
2023/11/18 05:09:41;;;;;;;43.15;22.23;;;6.20;99.90;;;;;;4170675;28;20505;-73
2023/11/18 05:11:42;;;;;;;42.25;21.70;;;6.30;99.90;;;;;;4169230;28;20029;-72
2023/11/18 05:13:43;;;;;;;43.05;21.40;;;6.30;99.90;;;;;;4172390;28;20477;-73
2023/11/18 05:15:47;;;;;;;39.13;19.80;;;6.30;99.90;;;;;;4174054;28;20036;-73
2023/11/18 05:17:47;;;;;;;42.80;21.80;;;6.30;99.90;;;;;;4178185;28;20508;-72
2023/11/18 05:19:48;;;;;;;38.35;20.52;;;6.30;99.90;;;;;;4176579;28;20029;-73
2023/11/18 05:21:49;;;;;;;46.28;21.50;;;6.40;99.90;;;;;;4177216;28;20159;-72
2023/11/18 05:23:50;;;;;;;41.80;21.00;;;6.30;99.90;;;;;;4177103;28;20040;-71
2023/11/18 05:25:51;;;;;;;39.33;21.42;;;6.40;99.90;;;;;;4175854;28;20036;-72
2023/11/18 05:27:52;;;;;;;41.53;20.65;;;6.40;99.90;;;;;;4170551;28;20039;-73
2023/11/18 05:29:59;;;;;;;45.75;21.27;;;6.30;99.90;;;;;;4174505;28;20405;-70
2023/11/18 05:31:59;;;;;;;40.50;20.70;;;6.40;99.90;;;;;;4158986;28;20033;-71
2023/11/18 05:34:00;;;;;;;39.33;19.88;;;6.30;99.90;;;;;;4163317;28;20112;-71
2023/11/18 05:36:01;;;;;;;42.22;20.48;;;6.40;99.90;;;;;;4172022;28;20037;-70
2023/11/18 05:38:03;;;;;;;44.10;20.67;;;6.40;99.90;;;;;;4167994;28;20070;-71
2023/11/18 05:40:07;;;;;;;37.60;20.70;;;6.40;99.90;;;;;;4172290;28;20037;-72
2023/11/18 05:42:10;;;;;;;40.97;20.38;;;6.40;99.90;;;;;;4153844;28;20306;-70
2023/11/18 05:44:17;;;;;;;36.70;20.10;;;6.40;99.90;;;;;;4184887;28;20037;-71
2023/11/18 05:46:22;;;;;;;42.20;21.70;;;6.30;99.90;;;;;;4173037;28;20064;-70
2023/11/18 05:48:23;;;;;;;38.33;20.48;;;6.30;99.90;;;;;;4172731;28;20580;-71
2023/11/18 05:50:24;;;;;;;43.22;20.60;;;6.30;99.90;;;;;;4173174;28;20033;-71
2023/11/18 05:52:25;;;;;;;41.00;21.35;;;6.30;99.90;;;;;;4166743;28;20040;-71
2023/11/18 05:54:26;;;;;;;39.05;20.58;;;6.30;99.90;;;;;;4177007;28;20112;-71
2023/11/18 05:56:26;;;;;;;39.67;19.70;;;6.40;99.90;;;;;;4176986;28;20931;-71
2023/11/18 05:58:28;;;;;;;40.17;19.90;;;6.40;99.90;;;;;;4177723;28;20037;-71
2023/11/18 06:00:30;;;;;;;37.67;20.60;;;6.40;99.90;;;;;;4182575;28;20036;-71
2023/11/18 06:02:31;;;;;;;;;;;6.30;99.90;;;;;;4186211;28;20037;-71
2023/11/18 06:04:32;;;;;;;35.80;17.70;;;6.30;99.90;;;;;;4173411;28;19916;-71
2023/11/18 06:06:34;;;;;;;34.83;18.70;;;6.40;99.90;;;;;;4166635;28;20075;-71
2023/11/18 06:08:35;;;;;;;35.13;17.90;;;6.40;99.90;;;;;;4175994;28;20041;-71
2023/11/18 06:10:36;;;;;;;35.00;18.73;;;6.30;99.90;;;;;;4168735;28;20029;-71
2023/11/18 06:12:40;;;;;;;34.67;18.13;;;6.30;99.90;;;;;;4176871;28;20425;-70
2023/11/18 06:14:41;;;;;;;38.38;18.85;;;6.40;99.90;;;;;;4177284;28;20033;-71
2023/11/18 06:16:43;;;;;;;35.17;18.92;;;6.40;99.90;;;;;;4168282;28;20527;-71
2023/11/18 06:18:45;;;;;;;34.60;18.67;;;6.30;99.90;;;;;;4161527;28;20112;-71
2023/11/18 06:20:46;;;;;;;31.67;16.80;;;6.30;99.90;;;;;;4173401;28;20080;-70
2023/11/18 06:22:47;;;;;;;35.53;18.30;;;6.30;99.90;;;;;;4173704;28;20040;-70
2023/11/18 06:24:47;;;;;;;35.03;18.05;;;6.30;99.90;;;;;;4176770;28;20041;-70
2023/11/18 06:26:49;;;;;;;32.92;16.60;;;6.30;99.90;;;;;;4146272;28;20044;-71
2023/11/18 06:28:50;;;;;;;30.90;17.20;;;6.30;99.90;;;;;;4123690;28;20134;-71
2023/11/18 06:30:51;;;;;;;30.38;16.80;;;6.40;99.90;;;;;;4172718;28;20076;-71
2023/11/18 06:32:51;;;;;;;29.33;15.70;;;6.30;99.90;;;;;;4161054;28;20040;-71
2023/11/18 06:34:53;;;;;;;31.50;16.98;;;6.40;99.90;;;;;;4173826;28;20044;-71
2023/11/18 06:36:54;;;;;;;33.92;17.13;;;6.40;99.90;;;;;;4151094;28;20029;-71
2023/11/18 06:38:55;;;;;;;36.03;18.23;;;6.40;99.90;;;;;;4132701;28;20116;-76
2023/11/18 06:40:58;;;;;;;39.17;18.02;;;6.40;99.90;;;;;;4099033;28;20480;-75
2023/11/18 06:43:02;;;;;;;35.55;17.77;;;6.40;99.90;;;;;;4166090;28;20115;-74
2023/11/18 06:45:05;;;;;;;30.67;17.38;;;6.40;99.90;;;;;;4157543;28;20044;-75
2023/11/18 06:47:06;;;;;;;34.28;16.85;;;6.40;99.90;;;;;;4149470;28;20081;-74
2023/11/18 06:49:07;;;;;;;32.38;16.85;;;6.40;99.90;;;;;;4134820;28;20516;-67
2023/11/18 06:51:08;;;;;;;31.77;16.92;;;6.40;99.90;;;;;;4140963;28;20493;-66
2023/11/18 06:53:09;;;;;;;31.45;16.58;;;6.40;99.90;;;;;;4087133;28;20079;-66
2023/11/18 06:55:11;;;;;;;31.42;16.63;;;6.40;99.90;;;;;;4118734;28;20037;-68
2023/11/18 06:57:12;;;;;;;27.50;14.90;;;6.40;99.90;;;;;;4132882;28;20120;-66
2023/11/18 06:59:13;;;;;;;30.23;16.67;;;6.40;99.90;;;;;;4138251;28;20627;-70
2023/11/18 07:01:14;;;;;;;31.80;17.23;;;6.40;99.90;;;;;;4157769;28;20040;-69
2023/11/18 07:03:16;;;;;;;32.63;17.45;;;6.40;99.90;;;;;;4166694;28;20389;-69
2023/11/18 07:05:17;;;;;;;32.47;17.35;;;6.40;99.90;;;;;;4178725;28;20029;-70
2023/11/18 07:07:18;;;;;;;32.88;16.45;;;6.40;99.90;;;;;;4185188;28;20124;-70
2023/11/18 07:09:20;;;;;;;35.33;16.88;;;6.40;99.90;;;;;;4189020;28;20490;-70
2023/11/18 07:11:21;;;;;;;28.73;15.80;;;6.50;99.90;;;;;;4171312;28;20041;-69
2023/11/18 07:13:23;;;;;;;34.65;16.48;;;6.50;99.90;;;;;;4176173;28;20031;-70
2023/11/18 07:15:23;;;;;;;28.33;15.48;;;6.50;99.90;;;;;;4168505;28;20056;-70
2023/11/18 07:17:24;;;;;;;35.65;17.70;;;6.50;99.90;;;;;;4165299;28;20033;-70
2023/11/18 07:19:24;;;;;;;32.90;15.65;;;6.50;99.90;;;;;;4169945;28;20488;-70
2023/11/18 07:21:25;;;;;;;31.02;16.45;;;6.50;99.90;;;;;;4173703;28;20037;-70
2023/11/18 07:23:26;;;;;;;33.33;17.10;;;6.50;99.90;;;;;;4175124;28;20116;-70
2023/11/18 07:25:27;;;;;;;30.00;16.75;;;6.50;99.90;;;;;;4179370;28;20139;-70
2023/11/18 07:27:28;;;;;;;32.55;16.45;;;6.50;99.90;;;;;;4173162;28;20455;-69
2023/11/18 07:29:28;;;;;;;29.73;15.63;;;6.50;99.90;;;;;;4170218;28;20047;-69
2023/11/18 07:31:29;;;;;;;30.88;16.05;;;6.50;99.90;;;;;;4172233;28;20037;-69
2023/11/18 07:33:31;;;;;;;30.33;16.50;;;6.50;99.90;;;;;;4176584;28;20036;-69
2023/11/18 07:35:32;;;;;;;31.50;15.70;;;6.50;99.90;;;;;;4176152;28;20029;-69
2023/11/18 07:37:33;;;;;;;28.85;15.63;;;6.50;99.90;;;;;;4174344;28;20404;-69
2023/11/18 07:39:48;;;;;;;31.60;16.70;;;6.50;99.90;;;;;;4178259;28;20545;-69
2023/11/18 07:41:48;;;;;;;29.42;16.38;;;6.50;99.90;;;;;;4160126;28;20047;-70
2023/11/18 07:43:54;;;;;;;28.80;15.55;;;6.50;99.90;;;;;;4175944;28;20072;-69
2023/11/18 07:45:55;;;;;;;29.48;15.45;;;6.50;99.90;;;;;;4170893;28;20386;-70
2023/11/18 07:47:56;;;;;;;32.47;16.13;;;6.50;99.90;;;;;;4171837;28;20052;-70
2023/11/18 07:49:58;;;;;;;29.33;16.35;;;6.50;99.90;;;;;;4169142;28;20432;-69
2023/11/18 07:51:59;;;;;;;31.15;17.20;;;6.50;99.90;;;;;;4166671;28;20037;-69
2023/11/18 07:54:00;;;;;;;27.50;15.77;;;6.50;99.90;;;;;;4170517;28;20064;-70
2023/11/18 07:56:03;;;;;;;27.02;14.98;;;6.50;99.90;;;;;;4163630;28;20116;-69
2023/11/18 07:58:04;;;;;;;30.90;16.98;;;6.50;99.90;;;;;;4166431;28;20061;-69
2023/11/18 08:00:10;;;;;;;27.65;16.35;;;6.50;99.90;;;;;;4159352;28;20048;-70
2023/11/18 08:02:12;;;;;;;31.60;17.27;;;6.60;99.90;;;;;;4170922;28;20090;-70
2023/11/18 08:04:13;;;;;;;30.02;15.95;;;6.50;99.90;;;;;;4171453;28;21229;-70
2023/11/18 08:06:14;;;;;;;27.98;15.48;;;6.50;99.90;;;;;;4170036;28;20036;-69
2023/11/18 08:08:16;;;;;;;26.17;14.93;;;6.60;99.90;;;;;;4169825;28;20033;-73
2023/11/18 08:10:18;;;;;;;30.30;15.57;;;6.60;99.90;;;;;;4169807;28;20098;-75
2023/11/18 08:12:20;;;;;;;27.27;14.88;;;6.60;99.90;;;;;;4171361;28;20179;-74
2023/11/18 08:14:21;;;;;;;28.73;15.83;;;6.60;99.90;;;;;;4171883;28;20063;-74
2023/11/18 08:16:22;;;;;;;29.63;15.15;;;6.60;99.90;;;;;;4164260;28;20295;-74
2023/11/18 08:18:23;;;;;;;27.80;15.00;;;6.70;99.90;;;;;;4174822;28;20389;-73
2023/11/18 08:20:25;;;;;;;28.60;16.03;;;6.70;99.90;;;;;;4168026;28;20072;-74
2023/11/18 08:22:26;;;;;;;28.40;14.75;;;6.70;99.90;;;;;;4157810;28;20456;-74
2023/11/18 08:24:26;;;;;;;25.88;14.23;;;6.70;99.90;;;;;;4157385;28;20044;-74
2023/11/18 08:26:27;;;;;;;30.13;14.93;;;6.70;99.90;;;;;;4147470;28;20033;-74
2023/11/18 08:28:27;;;;;;;23.50;13.88;;;6.70;99.90;;;;;;4151313;28;20036;-74
2023/11/18 08:30:28;;;;;;;22.23;13.30;;;6.70;99.90;;;;;;4163744;28;20166;-74
2023/11/18 08:32:29;;;;;;;25.00;14.43;;;6.80;99.90;;;;;;4170910;28;20090;-74
2023/11/18 08:34:30;;;;;;;25.60;14.15;;;6.80;99.90;;;;;;4164916;28;20029;-75
2023/11/18 08:36:32;;;;;;;25.45;15.27;;;6.80;99.90;;;;;;4173215;28;20025;-74
2023/11/18 08:38:33;;;;;;;26.38;15.05;;;6.80;99.90;;;;;;4156113;28;20029;-74
2023/11/18 08:40:34;;;;;;;25.85;14.60;;;6.80;99.90;;;;;;4179160;28;20044;-74
2023/11/18 08:42:35;;;;;;;25.27;14.23;;;6.80;99.90;;;;;;4179525;28;20033;-74
2023/11/18 08:44:38;;;;;;;25.40;14.38;;;6.80;99.90;;;;;;4177902;28;20468;-74
2023/11/18 08:46:39;;;;;;;27.00;14.75;;;6.80;99.90;;;;;;4177574;28;20033;-74
2023/11/18 08:48:40;;;;;;;21.88;13.77;;;6.90;99.90;;;;;;4177457;28;20044;-74
2023/11/18 08:50:43;;;;;;;24.23;14.02;;;6.90;99.90;;;;;;4176092;28;20033;-74
2023/11/18 08:52:46;;;;;;;23.40;13.27;;;6.90;99.90;;;;;;4179271;28;20037;-73
2023/11/18 08:57:23;;;;;;;26.20;14.25;;;7.00;99.90;;;;;;4168482;28;20113;-74
2023/11/18 08:59:27;;;;;;;24.58;12.82;;;7.00;99.90;;;;;;4177501;28;20071;-73
2023/11/18 09:01:28;;;;;;;20.58;12.32;;;7.10;99.90;;;;;;4178437;28;20500;-74
2023/11/18 09:03:34;;;;;;;23.25;13.25;;;7.10;99.90;;;;;;4177504;28;20045;-74
2023/11/18 09:05:35;;;;;;;26.90;13.38;;;7.00;99.90;;;;;;4174590;28;20040;-74
2023/11/18 09:07:36;;;;;;;21.50;12.80;;;7.10;99.90;;;;;;4194535;28;20119;-74
2023/11/18 09:09:39;;;;;;;24.13;13.32;;;7.10;99.90;;;;;;4178883;28;20388;-74
2023/11/18 09:11:41;;;;;;;24.05;13.20;;;7.10;99.90;;;;;;4176719;28;20507;-73
2023/11/18 09:13:53;;;;;;;21.98;12.55;;;7.10;99.90;;;;;;4178739;28;20395;-73
2023/11/18 09:15:56;;;;;;;20.17;11.93;;;7.10;99.90;;;;;;4171382;28;20028;-74
2023/11/18 09:17:57;;;;;;;;;;;7.20;99.90;;;;;;4182412;28;20037;-74
2023/11/18 09:19:58;;;;;;;22.05;12.30;;;7.10;99.90;;;;;;4177108;28;20422;-70
2023/11/18 09:21:58;;;;;;;23.98;13.43;;;7.20;99.90;;;;;;4176080;28;20045;-70
2023/11/18 09:23:59;;;;;;;22.38;12.30;;;7.10;99.90;;;;;;4177625;28;20057;-70
2023/11/18 09:26:07;;;;;;;23.05;12.38;;;7.20;99.90;;;;;;4174864;28;20047;-70
2023/11/18 09:28:10;;;;;;;23.75;12.63;;;7.20;99.90;;;;;;4179119;28;20473;-70
2023/11/18 09:30:13;;;;;;;23.95;12.45;;;7.20;99.90;;;;;;4176786;28;20060;-70
2023/11/18 09:32:14;;;;;;;22.30;11.98;;;7.20;99.90;;;;;;4153162;28;20041;-70
2023/11/18 09:34:16;;;;;;;25.45;12.32;;;7.20;99.90;;;;;;4176802;28;20036;-70
2023/11/18 09:36:18;;;;;;;19.52;11.00;;;7.20;99.90;;;;;;4172064;28;20411;-70
2023/11/18 09:38:18;;;;;;;20.70;12.27;;;7.30;99.90;;;;;;4153759;28;20032;-70
2023/11/18 09:40:24;;;;;;;19.17;11.40;;;7.30;99.90;;;;;;4176750;28;20037;-70
2023/11/18 09:42:25;;;;;;;18.65;10.95;;;7.30;99.90;;;;;;4162569;28;20041;-70
2023/11/18 09:44:27;;;;;;;22.83;11.90;;;7.30;99.90;;;;;;4173700;28;20519;-70
2023/11/18 09:46:35;;;;;;;19.15;11.48;;;7.30;99.90;;;;;;4167406;28;20049;-70
2023/11/18 09:48:40;;;;;;;17.90;10.73;;;7.30;99.90;;;;;;4155632;28;20096;-70
2023/11/18 09:50:44;;;;;;;18.45;10.52;;;7.30;99.90;;;;;;4170054;28;20516;-70
2023/11/18 09:52:52;;;;;;;17.40;10.15;;;7.40;99.90;;;;;;4168807;28;20044;-69
2023/11/18 09:55:04;;;;;;;23.75;11.38;;;7.40;99.90;;;;;;4171077;28;20037;-69
2023/11/18 09:57:23;;;;;;;19.50;10.63;;;7.50;99.90;;;;;;4167818;28;20036;-69
2023/11/18 09:59:36;;;;;;;19.10;9.85;;;7.50;99.90;;;;;;4154067;28;20182;-70
2023/11/18 10:01:38;;;;;;;;;;;7.50;99.90;;;;;;4171368;28;20602;-70
2023/11/18 10:03:43;;;;;;;20.02;10.40;;;7.50;99.90;;;;;;4175039;28;19915;-70
2023/11/18 10:05:44;;;;;;;16.70;10.35;;;7.50;99.90;;;;;;4173680;28;20025;-70
2023/11/18 10:07:49;;;;;;;15.93;9.67;;;7.50;99.90;;;;;;4174228;28;20524;-69
2023/11/18 10:09:49;;;;;;;24.70;10.77;;;7.50;99.90;;;;;;4170651;28;20397;-70
2023/11/18 10:11:50;;;;;;;20.63;10.55;;;7.50;99.90;;;;;;4171025;28;20049;-70
2023/11/18 10:13:51;;;;;;;16.48;9.60;;;7.60;99.90;;;;;;4173155;28;20401;-70
2023/11/18 10:15:57;;;;;;;20.40;10.35;;;7.60;99.90;;;;;;4172807;28;20037;-69
2023/11/18 10:18:06;;;;;;;17.70;9.20;;;7.60;99.90;;;;;;4173029;28;20382;-70
2023/11/18 10:20:12;;;;;;;15.27;7.95;;;7.60;99.90;;;;;;4156956;28;20061;-70
2023/11/18 10:22:29;;;;;;;19.17;9.32;;;7.60;99.90;;;;;;4173564;28;20112;-70
2023/11/18 10:24:44;;;;;;;16.38;9.55;;;7.70;99.90;;;;;;4171992;28;20439;-70
2023/11/18 10:26:57;;;;;;;15.95;9.35;;;7.70;99.90;;;;;;4169193;28;20040;-70
2023/11/18 10:29:02;;;;;;;;;;;7.60;99.90;;;;;;4170102;28;20087;-69
2023/11/18 10:31:09;;;;;;;16.15;8.45;;;7.70;99.90;;;;;;4169670;28;20364;-70